Time;durP1;ratioP1;P1;durP2;ratioP2;P2;SDS_P1;SDS_P2;PMS_P1;PMS_P2;Temp;Humidity;BMP_temperature;BMP_pressure;BME280_temperature;BME280_humidity;BME280_pressure;Samples;Min_cycle;Max_cycle;Signal;HPM_P1;HPM_P2
2022/03/08 00:01:29;;;;;;;119.13;63.53;;;1.50;99.90;;;;;;5072855;28;20039;-75
2022/03/08 00:03:58;;;;;;;115.35;62.45;;;1.40;99.90;;;;;;5056740;28;20135;-75
2022/03/08 00:06:26;;;;;;;114.30;63.50;;;1.40;99.90;;;;;;5068574;28;20523;-77
2022/03/08 00:08:54;;;;;;;111.85;62.42;;;1.40;99.90;;;;;;5059178;28;20064;-76
2022/03/08 00:11:21;;;;;;;114.38;60.70;;;1.40;99.90;;;;;;5060866;28;20407;-77
2022/03/08 00:13:50;;;;;;;102.15;56.40;;;1.40;99.90;;;;;;5046403;28;20080;-75
2022/03/08 00:16:18;;;;;;;93.93;53.25;;;1.30;99.90;;;;;;5062287;28;20065;-75
2022/03/08 00:18:48;;;;;;;116.00;62.15;;;1.30;99.90;;;;;;5072293;28;20074;-76
2022/03/08 00:21:18;;;;;;;117.28;64.18;;;1.30;99.90;;;;;;5076526;28;20048;-76
2022/03/08 00:23:47;;;;;;;116.55;64.22;;;1.30;99.90;;;;;;5076297;28;20044;-75
2022/03/08 00:26:15;;;;;;;125.18;68.15;;;1.20;99.90;;;;;;5058580;28;20086;-76
2022/03/08 00:28:43;;;;;;;117.05;65.13;;;1.20;99.90;;;;;;5091610;28;20040;-76
2022/03/08 00:31:11;;;;;;;124.32;66.53;;;1.20;99.90;;;;;;5057680;28;20369;-75
2022/03/08 00:33:42;;;;;;;119.97;65.15;;;1.10;99.90;;;;;;5053162;28;20044;-75
2022/03/08 00:36:10;;;;;;;135.00;73.40;;;1.00;99.90;;;;;;5055298;28;20420;-75
2022/03/08 00:38:41;;;;;;;122.53;68.05;;;0.90;99.90;;;;;;5076077;28;20057;-75
2022/03/08 00:41:08;;;;;;;129.77;70.18;;;0.90;99.90;;;;;;5057907;28;20049;-75
2022/03/08 00:43:36;;;;;;;124.70;67.72;;;0.80;99.90;;;;;;5058061;28;20403;-75
2022/03/08 00:46:05;;;;;;;119.75;70.65;;;0.80;99.90;;;;;;5058176;28;20063;-75
2022/03/08 00:48:32;;;;;;;120.38;73.22;;;0.80;99.90;;;;;;5058101;28;20483;-75
2022/03/08 00:51:00;;;;;;;109.93;68.60;;;0.70;99.90;;;;;;5075069;28;20451;-75
2022/03/08 00:53:28;;;;;;;106.43;66.93;;;0.70;99.90;;;;;;5058716;28;20068;-75
2022/03/08 00:55:57;;;;;;;109.75;69.30;;;0.70;99.90;;;;;;5077654;28;20388;-74
2022/03/08 00:58:25;;;;;;;110.53;69.30;;;0.60;1.00;;;;;;5075542;28;20083;-76
2022/03/08 01:00:53;;;;;;;115.38;70.80;;;0.60;1.00;;;;;;5075721;28;20512;-76
2022/03/08 01:03:21;;;;;;;113.85;72.35;;;0.60;1.00;;;;;;5058054;28;20452;-75
2022/03/08 01:05:48;;;;;;;116.07;71.78;;;0.50;1.00;;;;;;5075855;28;20066;-74
2022/03/08 01:08:16;;;;;;;113.75;71.28;;;0.50;1.00;;;;;;5081135;28;20115;-76
2022/03/08 01:10:44;;;;;;;110.03;70.90;;;0.50;1.00;;;;;;5081011;28;20045;-75
2022/03/08 01:13:13;;;;;;;123.72;77.68;;;0.40;1.00;;;;;;5056444;28;20055;-75
2022/03/08 01:15:41;;;;;;;131.82;80.72;;;0.40;1.00;;;;;;5049567;28;20522;-75
2022/03/08 01:18:10;;;;;;;129.88;79.50;;;0.40;1.00;;;;;;5087417;28;20492;-75
2022/03/08 01:20:38;;;;;;;136.73;82.95;;;0.40;1.00;;;;;;5074155;28;20041;-75
2022/03/08 01:23:07;;;;;;;158.18;92.07;;;0.40;1.00;;;;;;5075747;28;20053;-75
2022/03/08 01:25:37;;;;;;;164.30;92.45;;;0.30;1.00;;;;;;5076439;28;20480;-74
2022/03/08 01:28:06;;;;;;;156.10;90.78;;;0.30;1.00;;;;;;5075997;28;20090;-76
2022/03/08 01:30:36;;;;;;;166.50;95.65;;;0.30;1.00;;;;;;5074597;28;20132;-76
2022/03/08 01:33:05;;;;;;;143.18;82.07;;;0.30;1.00;;;;;;5078906;28;20483;-75
2022/03/08 01:35:32;;;;;;;127.95;73.70;;;0.20;1.00;;;;;;5059021;28;20063;-75
2022/03/08 01:38:00;;;;;;;126.20;71.70;;;0.30;1.00;;;;;;5077055;28;20072;-75
2022/03/08 01:40:28;;;;;;;128.65;75.05;;;0.20;1.00;;;;;;5050907;28;20044;-74
2022/03/08 01:42:56;;;;;;;125.75;77.00;;;0.20;1.00;;;;;;5058841;28;20052;-75
2022/03/08 01:45:25;;;;;;;132.48;77.25;;;0.30;1.00;;;;;;5060381;28;20047;-75
2022/03/08 01:47:55;;;;;;;142.25;82.15;;;0.30;1.00;;;;;;5059610;28;20045;-74
2022/03/08 01:50:22;;;;;;;154.05;91.70;;;0.30;1.00;;;;;;5057564;28;20140;-75
2022/03/08 01:52:51;;;;;;;146.32;88.68;;;0.20;1.00;;;;;;5075592;28;20128;-75
2022/03/08 01:55:19;;;;;;;144.98;83.97;;;0.20;1.00;;;;;;5074754;28;20094;-76
2022/03/08 01:57:48;;;;;;;132.45;76.60;;;0.20;1.00;;;;;;5059231;28;20048;-75
2022/03/08 02:00:18;;;;;;;125.40;72.90;;;0.20;1.00;;;;;;5075037;28;20044;-76
2022/03/08 02:02:46;;;;;;;128.15;75.72;;;0.20;1.00;;;;;;5073321;28;20044;-76
2022/03/08 02:05:15;;;;;;;140.95;85.05;;;0.20;1.00;;;;;;5074641;28;20040;-74
2022/03/08 02:07:43;;;;;;;140.98;80.40;;;0.10;1.00;;;;;;5073602;28;20048;-75
2022/03/08 02:10:11;;;;;;;135.13;77.45;;;0.10;1.00;;;;;;5074489;28;20492;-75
2022/03/08 02:12:39;;;;;;;132.15;73.60;;;0.20;1.00;;;;;;5074380;28;20151;-74
2022/03/08 02:15:16;;;;;;;127.93;72.80;;;0.30;1.00;;;;;;5074707;28;20127;-75
2022/03/08 02:17:44;;;;;;;129.50;71.95;;;0.30;1.00;;;;;;5082506;28;20048;-75
2022/03/08 02:20:14;;;;;;;123.38;70.43;;;0.30;1.00;;;;;;5061350;28;20480;-76
2022/03/08 02:22:44;;;;;;;115.53;64.78;;;0.30;1.00;;;;;;5056977;28;20059;-75
2022/03/08 02:25:12;;;;;;;108.13;61.10;;;0.30;1.00;;;;;;5076321;28;20044;-76
2022/03/08 02:27:42;;;;;;;98.13;56.58;;;0.30;1.00;;;;;;5076050;28;20044;-76
2022/03/08 02:30:11;;;;;;;121.82;66.47;;;0.30;1.00;;;;;;5076632;28;20472;-75
2022/03/08 02:32:40;;;;;;;125.32;67.75;;;0.40;1.00;;;;;;5077151;28;20054;-75
2022/03/08 02:35:09;;;;;;;69.88;42.58;;;0.30;1.00;;;;;;5061528;28;20049;-76
2022/03/08 02:37:41;;;;;;;56.88;35.72;;;0.30;1.00;;;;;;5092883;28;20056;-76
2022/03/08 02:40:12;;;;;;;71.88;43.85;;;0.30;1.00;;;;;;5089341;28;20040;-75
2022/03/08 02:42:41;;;;;;;81.75;48.28;;;0.40;1.00;;;;;;5082312;28;20110;-75
2022/03/08 02:45:11;;;;;;;70.35;39.75;;;0.30;1.00;;;;;;5090172;28;20041;-75
2022/03/08 02:47:41;;;;;;;68.53;41.97;;;0.30;1.00;;;;;;5071271;28;20492;-76
2022/03/08 02:50:14;;;;;;;65.97;40.22;;;0.30;1.00;;;;;;5067535;28;20041;-76
2022/03/08 02:52:43;;;;;;;69.28;42.42;;;0.30;1.00;;;;;;5065165;28;20048;-76
2022/03/08 02:55:13;;;;;;;67.95;40.55;;;0.30;1.00;;;;;;5064507;28;20044;-76
2022/03/08 02:57:42;;;;;;;64.45;40.65;;;0.30;1.00;;;;;;5097619;28;20057;-75
2022/03/08 03:00:14;;;;;;;65.13;38.72;;;0.40;1.00;;;;;;5059180;28;20059;-76
2022/03/08 03:02:42;;;;;;;58.38;36.75;;;0.40;1.00;;;;;;5075886;28;20042;-76
2022/03/08 03:05:10;;;;;;;63.53;39.42;;;0.40;1.00;;;;;;5057629;28;20511;-75
2022/03/08 03:07:40;;;;;;;60.55;38.30;;;0.40;1.00;;;;;;5074896;28;20056;-74
2022/03/08 03:10:09;;;;;;;65.63;40.97;;;0.30;1.00;;;;;;5056289;28;20037;-76
2022/03/08 03:12:38;;;;;;;64.47;39.55;;;0.20;1.00;;;;;;5056442;28;20049;-75
2022/03/08 03:15:09;;;;;;;64.18;40.05;;;0.20;1.00;;;;;;5056253;28;20407;-76
2022/03/08 03:17:37;;;;;;;64.60;39.17;;;0.20;1.00;;;;;;5074050;28;20052;-76
2022/03/08 03:20:06;;;;;;;62.83;39.50;;;0.10;1.00;;;;;;5074093;28;20760;-75
2022/03/08 03:22:33;;;;;;;62.13;39.08;;;0.10;1.00;;;;;;5073325;28;20045;-75
2022/03/08 03:25:01;;;;;;;62.42;38.47;;;0.10;1.00;;;;;;5055918;28;20131;-76
2022/03/08 03:27:28;;;;;;;61.17;37.63;;;0.10;1.00;;;;;;5074632;28;20071;-76
2022/03/08 03:29:58;;;;;;;64.05;40.03;;;0.10;1.00;;;;;;5074308;28;20079;-75
2022/03/08 03:32:26;;;;;;;61.35;39.40;;;0.10;1.00;;;;;;5073022;28;20044;-74
2022/03/08 03:34:54;;;;;;;61.60;38.60;;;0.10;1.00;;;;;;5075022;28;20041;-75
2022/03/08 03:37:23;;;;;;;62.40;39.05;;;0.20;1.00;;;;;;5090646;28;20045;-75
2022/03/08 03:39:51;;;;;;;62.55;39.05;;;0.20;1.00;;;;;;5078621;28;20051;-75
2022/03/08 03:42:19;;;;;;;62.60;39.30;;;0.20;1.00;;;;;;5078257;28;20037;-74
2022/03/08 03:44:47;;;;;;;62.83;39.30;;;0.30;1.00;;;;;;5079823;28;20506;-75
2022/03/08 03:47:16;;;;;;;59.40;36.97;;;0.30;1.00;;;;;;5077429;28;20045;-76
2022/03/08 03:49:43;;;;;;;54.03;36.72;;;0.30;1.00;;;;;;5076876;28;20141;-76
2022/03/08 03:52:11;;;;;;;61.08;38.33;;;0.20;1.00;;;;;;5077436;28;20041;-75
2022/03/08 03:54:39;;;;;;;62.47;37.67;;;0.20;1.00;;;;;;5077856;28;20426;-76
2022/03/08 03:57:08;;;;;;;56.88;38.65;;;0.20;1.00;;;;;;5059969;28;20135;-76
2022/03/08 03:59:35;;;;;;;58.63;36.13;;;0.20;1.00;;;;;;5059514;28;20432;-75
2022/03/08 04:02:03;;;;;;;55.58;36.80;;;0.20;1.00;;;;;;5077497;28;20036;-76
2022/03/08 04:04:32;;;;;;;57.72;35.85;;;0.20;1.00;;;;;;5077417;28;20036;-74
2022/03/08 04:07:00;;;;;;;60.80;37.53;;;0.20;1.00;;;;;;5077597;28;20098;-75
2022/03/08 04:09:27;;;;;;;63.58;38.92;;;0.20;1.00;;;;;;5077382;28;20041;-75
2022/03/08 04:11:55;;;;;;;63.70;39.13;;;0.20;1.00;;;;;;5059062;28;20047;-76
2022/03/08 04:14:23;;;;;;;58.80;38.30;;;0.20;1.00;;;;;;5077183;28;20082;-75
2022/03/08 04:16:50;;;;;;;54.97;35.95;;;0.20;1.00;;;;;;5059271;28;20072;-75
2022/03/08 04:19:18;;;;;;;58.63;35.58;;;0.20;1.00;;;;;;5078154;28;20098;-75
2022/03/08 04:21:46;;;;;;;55.58;37.05;;;0.30;1.00;;;;;;5079451;28;20059;-75
2022/03/08 04:24:14;;;;;;;58.33;37.63;;;0.20;1.00;;;;;;5079276;28;20446;-75
2022/03/08 04:26:41;;;;;;;57.78;36.75;;;0.20;1.00;;;;;;5077888;28;20047;-74
2022/03/08 04:29:09;;;;;;;58.75;37.30;;;0.20;1.00;;;;;;5077153;28;20438;-75
2022/03/08 04:31:36;;;;;;;61.00;37.53;;;0.10;1.00;;;;;;5075860;28;20036;-75
2022/03/08 04:34:04;;;;;;;58.45;37.08;;;0.20;1.00;;;;;;5077059;28;20048;-75
2022/03/08 04:36:32;;;;;;;59.13;37.28;;;0.20;1.00;;;;;;5077230;28;20044;-76
2022/03/08 04:39:01;;;;;;;60.03;38.17;;;0.20;1.00;;;;;;5076751;28;20090;-75
2022/03/08 04:41:29;;;;;;;59.70;37.10;;;0.20;1.00;;;;;;5038643;28;20049;-75
2022/03/08 04:43:57;;;;;;;66.80;39.13;;;0.20;1.00;;;;;;5038626;28;20055;-76
2022/03/08 04:46:25;;;;;;;62.90;38.67;;;0.20;1.00;;;;;;5048887;28;20044;-76
2022/03/08 04:48:52;;;;;;;66.53;40.13;;;0.10;1.00;;;;;;5076376;28;20128;-75
2022/03/08 04:51:20;;;;;;;67.18;40.42;;;0.10;1.00;;;;;;5076854;28;20063;-75
2022/03/08 04:53:47;;;;;;;63.38;40.95;;;0.00;1.00;;;;;;5076538;28;20463;-76
2022/03/08 04:56:18;;;;;;;68.05;41.40;;;0.00;1.00;;;;;;5059170;28;20433;-75
2022/03/08 04:58:46;;;;;;;70.85;43.65;;;-0.10;1.00;;;;;;5077325;28;20451;-75
2022/03/08 05:01:15;;;;;;;66.80;43.78;;;-0.10;1.00;;;;;;5077914;28;20040;-76
2022/03/08 05:03:44;;;;;;;65.15;44.05;;;-0.10;1.00;;;;;;5076402;28;20048;-74
2022/03/08 05:06:11;;;;;;;67.47;43.22;;;-0.10;1.00;;;;;;5073799;28;20036;-75
2022/03/08 05:08:38;;;;;;;69.47;45.15;;;-0.10;1.00;;;;;;5082399;28;20050;-75
2022/03/08 05:11:06;;;;;;;68.70;45.63;;;0.00;1.00;;;;;;5077770;28;20052;-76
2022/03/08 05:13:35;;;;;;;71.40;47.20;;;0.00;1.00;;;;;;5060834;28;20040;-75
2022/03/08 05:16:02;;;;;;;68.40;46.35;;;0.00;1.00;;;;;;5058676;28;20041;-75
2022/03/08 05:18:30;;;;;;;70.75;46.85;;;0.10;1.00;;;;;;5076515;28;20045;-75
2022/03/08 05:21:00;;;;;;;71.75;46.80;;;0.20;1.00;;;;;;5057934;28;20151;-75
2022/03/08 05:23:28;;;;;;;73.82;47.97;;;0.20;1.00;;;;;;5056642;28;20040;-75
2022/03/08 05:25:56;;;;;;;77.78;49.47;;;0.20;1.00;;;;;;5052932;28;20573;-75
2022/03/08 05:28:24;;;;;;;71.20;47.10;;;0.20;1.00;;;;;;5075639;28;20037;-76
2022/03/08 05:30:53;;;;;;;69.63;45.78;;;0.20;1.00;;;;;;5075871;28;20045;-75
2022/03/08 05:33:20;;;;;;;76.93;45.30;;;0.20;1.00;;;;;;5073490;28;20063;-75
2022/03/08 05:35:48;;;;;;;68.28;42.83;;;0.30;1.00;;;;;;5052145;28;20044;-75
2022/03/08 05:38:15;;;;;;;67.72;43.38;;;0.30;1.00;;;;;;5075436;28;20044;-75
2022/03/08 05:40:43;;;;;;;66.43;43.83;;;0.30;1.00;;;;;;5076354;28;20071;-75
2022/03/08 05:43:10;;;;;;;65.30;44.03;;;0.30;1.00;;;;;;5077274;28;20402;-75
2022/03/08 05:45:38;;;;;;;69.60;44.40;;;0.30;1.00;;;;;;5081744;28;20048;-75
2022/03/08 05:48:07;;;;;;;71.63;46.85;;;0.30;1.00;;;;;;5083388;28;20044;-76
2022/03/08 05:50:35;;;;;;;79.63;46.33;;;0.40;1.00;;;;;;5059108;28;20127;-76
2022/03/08 05:53:02;;;;;;;78.18;47.17;;;0.40;1.00;;;;;;5075500;28;20037;-76
2022/03/08 05:55:30;;;;;;;77.85;47.95;;;0.40;1.00;;;;;;5075719;28;20124;-76
2022/03/08 05:57:57;;;;;;;76.03;45.80;;;0.40;1.00;;;;;;5075643;28;20439;-75
2022/03/08 06:00:25;;;;;;;99.97;49.78;;;0.40;1.00;;;;;;5077043;28;20051;-75
2022/03/08 06:02:52;;;;;;;79.35;48.15;;;0.40;1.00;;;;;;5058524;28;20032;-75
2022/03/08 06:05:23;;;;;;;79.32;47.35;;;0.40;1.00;;;;;;5059699;28;20059;-75
2022/03/08 06:07:50;;;;;;;75.53;46.83;;;0.40;1.00;;;;;;5058510;28;20057;-75
2022/03/08 06:10:18;;;;;;;78.25;45.35;;;0.60;1.00;;;;;;5051884;28;20496;-75
2022/03/08 06:12:45;;;;;;;76.90;44.97;;;0.70;1.00;;;;;;5054859;28;20555;-75
2022/03/08 06:15:13;;;;;;;75.40;44.50;;;0.70;1.00;;;;;;5055000;28;20079;-76
2022/03/08 06:17:41;;;;;;;74.00;43.30;;;0.70;1.00;;;;;;5070595;28;20045;-75
2022/03/08 06:20:09;;;;;;;74.70;43.67;;;0.80;1.00;;;;;;5055316;28;20049;-76
2022/03/08 06:22:38;;;;;;;73.07;44.17;;;0.80;1.00;;;;;;5088555;28;20074;-76
2022/03/08 06:25:07;;;;;;;74.10;44.67;;;0.80;1.00;;;;;;5057261;28;20044;-76
2022/03/08 06:27:34;;;;;;;82.68;46.00;;;0.90;1.00;;;;;;5074341;28;20038;-76
2022/03/08 06:30:02;;;;;;;76.55;45.22;;;1.00;1.00;;;;;;5074827;28;20079;-76
2022/03/08 06:32:29;;;;;;;77.72;46.47;;;1.00;1.00;;;;;;5074190;28;20045;-76
2022/03/08 06:34:57;;;;;;;76.28;45.15;;;1.10;1.00;;;;;;5074189;28;20044;-76
2022/03/08 06:37:25;;;;;;;80.53;47.88;;;1.10;1.00;;;;;;5056735;28;20040;-77
2022/03/08 06:39:54;;;;;;;80.47;45.97;;;1.20;1.00;;;;;;5075520;28;20102;-76
2022/03/08 06:42:21;;;;;;;82.38;48.70;;;1.20;1.00;;;;;;5074389;28;20068;-76
2022/03/08 06:44:49;;;;;;;84.57;48.90;;;1.10;1.00;;;;;;5074334;28;20051;-76
2022/03/08 06:47:16;;;;;;;88.47;51.28;;;1.20;1.00;;;;;;5074096;28;20072;-76
2022/03/08 06:49:44;;;;;;;102.65;51.15;;;1.30;1.00;;;;;;5075904;28;20044;-75
2022/03/08 06:52:13;;;;;;;79.72;46.15;;;1.40;1.00;;;;;;5058198;28;20048;-75
2022/03/08 06:54:40;;;;;;;86.07;50.50;;;1.40;1.00;;;;;;5058516;28;20079;-75
2022/03/08 06:57:10;;;;;;;88.20;50.28;;;1.30;99.90;;;;;;5074026;28;20488;-76
2022/03/08 06:59:37;;;;;;;84.05;50.75;;;1.40;1.00;;;;;;5058500;28;20071;-76
2022/03/08 07:02:06;;;;;;;92.57;52.00;;;1.60;99.90;;;;;;5076000;28;20043;-75
2022/03/08 07:04:34;;;;;;;95.57;54.92;;;1.80;99.90;;;;;;5076158;28;20045;-76
2022/03/08 07:07:01;;;;;;;94.47;54.00;;;1.90;99.90;;;;;;5074399;28;20522;-75
2022/03/08 07:09:30;;;;;;;93.63;54.78;;;1.90;99.90;;;;;;5058940;28;20044;-76
2022/03/08 07:11:58;;;;;;;94.72;55.15;;;1.90;99.90;;;;;;5058727;28;20304;-75
2022/03/08 07:14:28;;;;;;;104.32;60.38;;;1.80;99.90;;;;;;5056557;28;20048;-76
2022/03/08 07:16:56;;;;;;;102.80;59.42;;;1.70;99.90;;;;;;5088828;28;20059;-76
2022/03/08 07:19:24;;;;;;;92.65;56.40;;;1.70;99.90;;;;;;5055352;28;20056;-76
2022/03/08 07:21:52;;;;;;;104.28;59.88;;;1.50;99.90;;;;;;5072927;28;20048;-75
2022/03/08 07:24:20;;;;;;;92.15;52.75;;;1.50;99.90;;;;;;5072313;28;20041;-76
2022/03/08 07:26:47;;;;;;;87.15;52.35;;;1.60;99.90;;;;;;5066940;28;20040;-77
2022/03/08 07:29:15;;;;;;;97.43;56.88;;;1.60;99.90;;;;;;5070355;28;20064;-76
2022/03/08 07:31:44;;;;;;;100.13;55.97;;;1.60;99.90;;;;;;5055080;28;20060;-75
2022/03/08 07:34:11;;;;;;;95.95;57.08;;;1.60;99.90;;;;;;5088885;28;20045;-76
2022/03/08 07:36:39;;;;;;;97.40;56.70;;;1.60;99.90;;;;;;5074101;28;20075;-76
2022/03/08 07:39:07;;;;;;;100.57;57.22;;;1.60;99.90;;;;;;5088657;28;20458;-76
2022/03/08 07:41:35;;;;;;;93.47;52.45;;;1.60;99.90;;;;;;5055658;28;20432;-76
2022/03/08 07:44:03;;;;;;;96.05;54.35;;;1.70;99.90;;;;;;5072405;28;20052;-76
2022/03/08 07:46:30;;;;;;;98.45;57.08;;;1.90;99.90;;;;;;5067766;28;20045;-76
2022/03/08 07:48:59;;;;;;;89.03;52.13;;;2.00;99.90;;;;;;5084640;28;20127;-75
2022/03/08 07:51:27;;;;;;;96.60;53.70;;;2.10;99.90;;;;;;5057478;28;20071;-75
2022/03/08 07:53:55;;;;;;;92.80;53.85;;;1.80;99.90;;;;;;5056394;28;20048;-75
2022/03/08 07:56:22;;;;;;;87.93;50.78;;;1.70;99.90;;;;;;5061291;28;20056;-75
2022/03/08 07:58:50;;;;;;;94.95;53.40;;;1.80;99.90;;;;;;5100072;28;20086;-74
2022/03/08 08:01:18;;;;;;;92.40;53.97;;;1.80;99.90;;;;;;5073380;28;20044;-76
2022/03/08 08:03:45;;;;;;;94.55;57.22;;;1.80;99.90;;;;;;5070727;28;20404;-75
2022/03/08 08:06:14;;;;;;;98.93;55.65;;;2.10;99.90;;;;;;5071961;28;20345;-75
2022/03/08 08:08:42;;;;;;;98.13;53.30;;;2.40;99.90;;;;;;5072921;28;20040;-75
2022/03/08 08:11:09;;;;;;;91.18;51.90;;;2.30;99.90;;;;;;5056686;28;20143;-77
2022/03/08 08:13:37;;;;;;;98.40;54.50;;;2.40;99.90;;;;;;5054727;28;20044;-74
2022/03/08 08:16:05;;;;;;;90.05;53.53;;;2.50;99.90;;;;;;5073744;28;20036;-76
2022/03/08 08:18:33;;;;;;;101.10;59.10;;;2.50;99.90;;;;;;5055840;28;20037;-76
2022/03/08 08:21:02;;;;;;;102.85;59.13;;;2.90;99.90;;;;;;5058276;28;20048;-74
2022/03/08 08:23:31;;;;;;;100.40;56.97;;;3.30;99.90;;;;;;5061019;28;20041;-76
2022/03/08 08:25:58;;;;;;;102.68;58.03;;;3.50;99.90;;;;;;5050512;28;20373;-76
2022/03/08 08:28:26;;;;;;;93.28;52.30;;;3.90;99.90;;;;;;5059595;28;20066;-77
2022/03/08 08:30:53;;;;;;;91.75;54.97;;;4.10;82.70;;;;;;5063670;28;20060;-79
2022/03/08 08:33:21;;;;;;;97.85;56.13;;;4.40;49.60;;;;;;5082377;28;20044;-78
2022/03/08 08:35:49;;;;;;;91.82;51.70;;;4.50;34.10;;;;;;5065558;28;20048;-78
2022/03/08 08:38:17;;;;;;;82.70;51.22;;;4.80;1.20;;;;;;5079587;28;20539;-78
2022/03/08 08:40:47;;;;;;;76.13;45.92;;;4.80;1.00;;;;;;5077783;28;20068;-78
2022/03/08 08:43:14;;;;;;;80.93;48.85;;;4.50;1.00;;;;;;5076695;28;20408;-78
2022/03/08 08:45:42;;;;;;;79.53;47.80;;;4.10;1.00;;;;;;5093522;28;20087;-78
2022/03/08 08:48:10;;;;;;;73.07;46.67;;;4.10;1.00;;;;;;5078400;28;20504;-77
2022/03/08 08:50:37;;;;;;;82.03;45.90;;;4.40;1.00;;;;;;5061697;28;20046;-77
2022/03/08 08:53:05;;;;;;;79.13;47.72;;;4.50;1.00;;;;;;5059473;28;20131;-78
2022/03/08 08:55:36;;;;;;;83.63;50.50;;;4.70;1.00;;;;;;5078189;28;20049;-77
2022/03/08 08:58:06;;;;;;;91.88;53.75;;;4.50;1.00;;;;;;5081093;28;20123;-79
2022/03/08 09:00:34;;;;;;;84.65;51.33;;;4.20;1.00;;;;;;5058410;28;20060;-78
2022/03/08 09:03:03;;;;;;;83.07;49.05;;;3.90;1.00;;;;;;5067876;28;20102;-78
2022/03/08 09:05:32;;;;;;;88.38;53.67;;;3.90;1.00;;;;;;5069617;28;20045;-78
2022/03/08 09:07:59;;;;;;;88.07;51.45;;;3.90;1.00;;;;;;5078383;28;20044;-77
2022/03/08 09:10:27;;;;;;;93.00;55.05;;;4.10;1.00;;;;;;5086236;28;20044;-77
2022/03/08 09:12:55;;;;;;;96.72;51.92;;;4.10;1.00;;;;;;5082311;28;20093;-78
2022/03/08 09:15:24;;;;;;;90.93;54.45;;;3.90;1.00;;;;;;5076464;28;20063;-77
2022/03/08 09:17:51;;;;;;;90.65;52.75;;;4.10;1.00;;;;;;5094845;28;20036;-77
2022/03/08 09:20:19;;;;;;;86.80;52.60;;;4.20;1.00;;;;;;5076073;28;20040;-75
2022/03/08 09:22:47;;;;;;;86.80;49.47;;;3.90;1.00;;;;;;5068362;28;20156;-78
2022/03/08 09:25:14;;;;;;;84.30;50.25;;;3.60;1.00;;;;;;5065951;28;20072;-77
2022/03/08 09:27:42;;;;;;;100.47;52.63;;;3.40;1.00;;;;;;5051788;28;20049;-78
2022/03/08 09:30:12;;;;;;;88.28;50.83;;;3.50;1.00;;;;;;5060898;28;20053;-84
2022/03/08 09:32:41;;;;;;;83.68;47.13;;;3.70;1.00;;;;;;5063959;28;20390;-77
2022/03/08 09:35:09;;;;;;;82.82;47.88;;;3.80;1.00;;;;;;5060994;28;20036;-78
2022/03/08 09:37:37;;;;;;;78.82;47.35;;;3.80;1.00;;;;;;5061662;28;20103;-78
2022/03/08 09:40:06;;;;;;;75.55;46.28;;;4.00;1.00;;;;;;5067330;28;20045;-78
2022/03/08 09:42:34;;;;;;;82.90;49.22;;;4.20;1.00;;;;;;5063217;28;20077;-76
2022/03/08 09:45:01;;;;;;;74.95;46.72;;;4.20;1.00;;;;;;5058227;28;20068;-77
2022/03/08 09:47:29;;;;;;;79.40;47.28;;;4.20;1.00;;;;;;5055623;28;20049;-78
2022/03/08 09:49:58;;;;;;;76.85;45.80;;;4.30;1.00;;;;;;5054458;28;20045;-77
2022/03/08 09:52:26;;;;;;;76.15;45.53;;;4.60;1.00;;;;;;5053970;28;20037;-77
2022/03/08 09:54:54;;;;;;;73.57;44.85;;;4.90;1.00;;;;;;5046298;28;20037;-78
2022/03/08 09:57:24;;;;;;;68.78;42.97;;;5.00;1.00;;;;;;5036065;28;20056;-77
2022/03/08 09:59:51;;;;;;;70.38;43.38;;;5.10;1.00;;;;;;5048672;28;20049;-75
2022/03/08 10:02:22;;;;;;;75.63;45.97;;;5.00;1.00;;;;;;5053714;28;20060;-77
2022/03/08 10:05:05;;;;;;;76.45;45.75;;;4.80;1.00;;;;;;5049407;28;20049;-77
2022/03/08 10:07:32;;;;;;;77.85;44.92;;;4.80;1.00;;;;;;5036938;28;20053;-77
2022/03/08 10:10:00;;;;;;;75.90;46.50;;;5.00;1.00;;;;;;5052408;28;20055;-76
2022/03/08 10:12:28;;;;;;;74.43;45.88;;;5.00;1.00;;;;;;5050175;28;20041;-76
2022/03/08 10:14:57;;;;;;;76.57;46.42;;;5.20;1.00;;;;;;5055170;28;20041;-77
2022/03/08 10:17:37;;;;;;;69.40;43.03;;;5.20;1.00;;;;;;5043064;28;20072;-77
2022/03/08 10:20:07;;;;;;;76.70;46.20;;;5.30;1.00;;;;;;5034811;28;20049;-77
2022/03/08 10:22:37;;;;;;;75.78;46.08;;;5.60;1.00;;;;;;5033341;28;20049;-77
2022/03/08 10:25:16;;;;;;;72.45;45.38;;;5.90;1.00;;;;;;5034271;28;20052;-76
2022/03/08 10:27:58;;;;;;;75.65;48.15;;;5.50;1.00;;;;;;5039689;28;20084;-77
2022/03/08 10:30:28;;;;;;;81.55;47.90;;;5.30;1.00;;;;;;5069434;28;20056;-75
2022/03/08 10:32:59;;;;;;;81.00;47.50;;;5.70;1.00;;;;;;5078345;28;20044;-76
2022/03/08 10:35:29;;;;;;;77.85;49.15;;;6.10;1.00;;;;;;5069188;28;20068;-76
2022/03/08 10:37:58;;;;;;;65.88;43.50;;;6.50;1.00;;;;;;5070073;28;20065;-76
2022/03/08 10:40:30;;;;;;;65.18;38.63;;;6.90;1.00;;;;;;5071240;28;20045;-76
2022/03/08 10:43:01;;;;;;;58.58;38.85;;;6.70;1.00;;;;;;5065191;28;20071;-78
2022/03/08 10:45:30;;;;;;;61.22;38.75;;;6.40;1.00;;;;;;5057320;28;20076;-78
2022/03/08 10:47:58;;;;;;;60.60;37.80;;;6.50;1.00;;;;;;5053563;28;20045;-78
2022/03/08 10:50:30;;;;;;;67.68;43.28;;;6.50;1.00;;;;;;5052471;28;20108;-78
2022/03/08 10:53:01;;;;;;;73.65;44.15;;;6.50;1.00;;;;;;5052421;28;20087;-79
2022/03/08 10:55:31;;;;;;;71.53;46.13;;;6.40;1.00;;;;;;5052133;28;20052;-77
2022/03/08 10:58:01;;;;;;;73.43;47.20;;;6.50;1.00;;;;;;5066372;28;20045;-77
2022/03/08 11:00:31;;;;;;;63.67;44.00;;;6.30;1.00;;;;;;5059715;28;20044;-76
2022/03/08 11:03:00;;;;;;;66.28;42.78;;;6.20;1.00;;;;;;5056967;28;20049;-77
2022/03/08 11:05:31;;;;;;;62.70;40.63;;;6.40;1.00;;;;;;5055761;28;20051;-77
2022/03/08 11:07:59;;;;;;;52.08;35.55;;;6.30;1.00;;;;;;5049865;28;20135;-78
2022/03/08 11:10:28;;;;;;;55.80;36.28;;;6.10;1.00;;;;;;5054577;28;20045;-78
2022/03/08 11:12:57;;;;;;;51.67;36.45;;;6.10;1.00;;;;;;5055998;28;20170;-76
2022/03/08 11:15:26;;;;;;;60.13;38.13;;;6.40;1.00;;;;;;5044469;28;20088;-77
2022/03/08 11:17:55;;;;;;;47.88;28.92;;;6.60;1.00;;;;;;5037270;28;20500;-78
2022/03/08 11:20:24;;;;;;;44.20;29.23;;;6.70;1.00;;;;;;5055787;28;20050;-78
2022/03/08 11:22:55;;;;;;;46.63;30.45;;;6.80;1.00;;;;;;5079965;22;20049;-76
2022/03/08 11:25:24;;;;;;;46.80;29.70;;;6.80;1.00;;;;;;5049784;28;20053;-74
2022/03/08 11:27:53;;;;;;;37.63;26.95;;;6.80;1.00;;;;;;5050363;28;20053;-75
2022/03/08 11:30:24;;;;;;;45.97;28.27;;;6.40;1.00;;;;;;5049026;28;20056;-75
2022/03/08 11:33:08;;;;;;;41.78;26.05;;;6.40;1.00;;;;;;5067890;28;20048;-74
2022/03/08 11:35:44;;;;;;;42.05;23.65;;;6.30;1.00;;;;;;5046366;28;20571;-75
2022/03/08 11:38:15;;;;;;;32.50;20.45;;;6.40;1.00;;;;;;5047862;28;20071;-76
2022/03/08 11:40:48;;;;;;;26.90;17.27;;;6.50;1.00;;;;;;5064888;28;20135;-76
2022/03/08 11:43:16;;;;;;;26.27;15.77;;;6.70;1.00;;;;;;5066216;28;20044;-75
2022/03/08 11:45:44;;;;;;;26.52;16.65;;;7.00;1.00;;;;;;5045862;28;20073;-75
2022/03/08 11:48:12;;;;;;;23.77;15.00;;;7.00;1.00;;;;;;5045143;28;20049;-75
2022/03/08 11:50:44;;;;;;;21.92;14.80;;;6.10;1.00;;;;;;5044231;28;20067;-75
2022/03/08 11:53:15;;;;;;;28.65;16.38;;;5.80;1.00;;;;;;5063986;28;20049;-75
2022/03/08 11:55:51;;;;;;;25.90;16.13;;;5.70;1.00;;;;;;5059595;28;20041;-76
2022/03/08 11:58:20;;;;;;;29.85;17.33;;;5.40;1.00;;;;;;5033492;28;20094;-74
2022/03/08 12:00:51;;;;;;;22.83;13.63;;;5.50;1.00;;;;;;5053166;28;20404;-74
2022/03/08 12:03:37;;;;;;;25.00;15.13;;;5.90;1.00;;;;;;5040489;28;20053;-75
2022/03/08 12:06:07;;;;;;;26.35;16.77;;;5.80;1.00;;;;;;5052610;28;20424;-75
2022/03/08 12:09:10;;;;;;;26.27;17.17;;;6.10;1.00;;;;;;5049076;28;20083;-75
2022/03/08 12:11:48;;;;;;;21.38;14.73;;;6.00;1.00;;;;;;5035354;28;20122;-76
2022/03/08 12:14:18;;;;;;;21.67;14.05;;;6.00;1.00;;;;;;5048259;28;20131;-74
2022/03/08 12:16:48;;;;;;;23.10;14.25;;;6.20;1.00;;;;;;5066173;28;20057;-75
2022/03/08 12:19:22;;;;;;;24.50;14.35;;;6.20;1.00;;;;;;5065242;28;20531;-75
2022/03/08 12:21:56;;;;;;;27.92;17.02;;;6.40;1.00;;;;;;5064706;28;20063;-75
2022/03/08 12:24:26;;;;;;;23.95;15.43;;;5.80;1.00;;;;;;5046978;28;20095;-75
2022/03/08 12:26:56;;;;;;;32.72;19.13;;;5.80;1.00;;;;;;5048615;28;20056;-75
2022/03/08 12:29:25;;;;;;;31.88;18.45;;;6.00;1.00;;;;;;5050703;28;20046;-75
2022/03/08 12:32:22;;;;;;;34.63;19.10;;;6.00;1.00;;;;;;5051304;28;20120;-76
2022/03/08 12:34:53;;;;;;;28.65;18.08;;;6.00;1.00;;;;;;5069141;28;20104;-75
2022/03/08 12:37:23;;;;;;;31.05;17.88;;;6.30;1.00;;;;;;5066888;28;20053;-75
2022/03/08 12:39:55;;;;;;;25.85;16.42;;;6.80;1.00;;;;;;5065876;28;20053;-75
2022/03/08 12:42:26;;;;;;;33.47;18.02;;;7.20;1.00;;;;;;5062490;28;20066;-74
2022/03/08 12:44:57;;;;;;;27.08;17.90;;;7.50;1.00;;;;;;5046092;28;20063;-74
2022/03/08 12:47:26;;;;;;;28.63;17.42;;;7.70;37.00;;;;;;5044661;28;20132;-76
2022/03/08 12:49:54;;;;;;;25.10;15.05;;;7.80;30.10;;;;;;5074076;28;20044;-74
2022/03/08 12:52:22;;;;;;;21.55;14.73;;;7.60;39.70;;;;;;5077211;28;20049;-75